Weather History for Valdosta, GA

Change the Weather History Date:

Wednesday, October 12, 2011

  Actual Average Record
Temperature  
Mean Temperature 73 °F -  
Max Temperature 79 °F 78 °F 90 °F (2014)
Min Temperature 68 °F 58 °F 46 °F (2000)
Cooling Degree Days 8    
Growing Degree Days 23 (Base 50)    
Moisture  
Dew Point 69 °F    
Average Humidity 96    
Maximum Humidity 100    
Minimum Humidity 65    
Precipitation  
Precipitation 0.10 in - - ()
Sea Level Pressure  
Sea Level Pressure 29.81 in    
Wind  
Wind Speed 2 mph (WSW)    
Max Wind Speed 9 mph    
Max Gust Speed -    
Visibility 6 miles    
Events Rain    
Averages and records for this station are not official NWS values.
T = Trace of Precipitation, MM = Missing Value Source: NWS Daily Summary

Daily Weather History Graph

Daily Weather History Graph

Search for Another Location

Airport:

Trip Planner

Search our weather history database for the weather conditions in past years. The results will help you decide how hot, cold, wet, or windy it might be!

Date:

Astronomy

Oct. 12, 2011 Rise Set
Actual Time 7:33 AM EDT 7:04 PM EDT
Civil Twilight 7:08 AM EDT 7:29 PM EDT
Nautical Twilight 6:40 AM EDT 7:57 PM EDT
Astronomical Twilight 6:12 AM EDT 8:25 PM EDT
Moon 7:14 PM EDT (10/12) 8:00 AM EDT (10/12)
Length of Visible Light 12h 20m
Length of Day
11h 31m
Full, 100% of the Moon is Illuminated
Oct 12
Full
Oct 19
Last Quarter
Oct 26
New
Nov 2
First Quarter
Nov 10
Full

Hourly Weather History & Observations

Time (EDT) Temp. Dew Point Humidity Pressure Visibility Wind Dir Wind Speed Gust Speed Precip Events Conditions
12:08 AM 69.8 °F 69.8 °F 100% 29.83 in 4.0 mi NE 3.5 mph - N/A Rain Light Rain
12:16 AM 69.8 °F 69.8 °F 100% 29.83 in 4.0 mi NE 4.6 mph - N/A Rain Light Rain
12:25 AM 69.8 °F 69.8 °F 100% 29.83 in 4.0 mi NE 3.5 mph - N/A Rain Light Rain
12:27 AM 69.8 °F 69.8 °F 100% 29.82 in 5.0 mi ENE 4.6 mph - N/A   Overcast
12:35 AM 69.8 °F 69.8 °F 100% 29.82 in 5.0 mi Calm Calm - N/A Rain Light Rain
12:47 AM 69.8 °F 69.8 °F 100% 29.83 in 4.0 mi Calm Calm - N/A Rain Light Rain
12:54 AM 69.8 °F 69.8 °F 100% 29.83 in 3.0 mi ENE 3.5 mph - N/A Rain Light Rain
12:55 AM 70.0 °F 69.6 °F 99% 29.82 in 4.0 mi ENE 3.5 mph - 0.06 in Rain Light Rain
1:04 AM 69.8 °F 69.8 °F 100% 29.82 in 5.0 mi Calm Calm - N/A Rain Light Rain
1:08 AM 69.8 °F 69.8 °F 100% 29.82 in 6.0 mi Calm Calm - N/A Rain Light Rain
1:19 AM 69.8 °F 69.8 °F 100% 29.81 in 9.0 mi Calm Calm - N/A Rain Light Rain
1:26 AM 69.8 °F 69.8 °F 100% 29.81 in 8.0 mi ENE 3.5 mph - N/A Rain Light Rain
1:27 AM 69.8 °F 69.8 °F 100% 29.81 in 8.0 mi ENE 4.6 mph - N/A Rain Light Rain
1:36 AM 69.8 °F 69.8 °F 100% 29.81 in 10.0 mi East 3.5 mph - N/A   Overcast
1:44 AM 69.8 °F 69.8 °F 100% 29.81 in 10.0 mi Calm Calm - N/A Rain Light Rain
1:54 AM 69.8 °F 69.8 °F 100% 29.81 in 9.0 mi East 4.6 mph - N/A Rain Light Rain
1:55 AM 69.8 °F 69.4 °F 99% 29.81 in 9.0 mi East 4.6 mph - 0.01 in Rain Light Rain
2:03 AM 69.8 °F 69.8 °F 100% 29.81 in 10.0 mi ENE 3.5 mph - N/A Rain Light Rain
2:05 AM 69.8 °F 69.8 °F 100% 29.80 in 10.0 mi ENE 4.6 mph - N/A   Overcast
2:06 AM 69.8 °F 69.8 °F 100% 29.80 in 10.0 mi East 4.6 mph - N/A   Overcast
2:23 AM 69.8 °F 69.8 °F 100% 29.80 in 10.0 mi Calm Calm - N/A   Overcast
2:55 AM 69.8 °F 69.4 °F 99% 29.79 in 6.0 mi Calm Calm - 0.01 in   Overcast
3:02 AM 69.8 °F 69.8 °F 100% 29.79 in 2.5 mi Calm Calm - N/A   Overcast
3:03 AM 69.8 °F 69.8 °F 100% 29.79 in 2.5 mi Calm Calm - N/A   Overcast
3:07 AM 69.8 °F 69.8 °F 100% 29.79 in 2.0 mi Calm Calm - N/A   Overcast
3:08 AM 69.8 °F 69.8 °F 100% 29.79 in 1.8 mi Calm Calm - N/A   Overcast
3:10 AM 69.8 °F 69.8 °F 100% 29.79 in 1.5 mi ESE 3.5 mph - N/A   Overcast
3:14 AM 69.8 °F 69.8 °F 100% 29.79 in 1.2 mi Calm Calm - N/A   Overcast
3:31 AM 69.8 °F 69.8 °F 100% 29.79 in 1.0 mi Calm Calm - N/A   Mist
3:33 AM 69.8 °F 69.8 °F 100% 29.79 in 1.0 mi Calm Calm - N/A   Mist
3:48 AM 69.8 °F 69.8 °F 100% 29.79 in 0.8 mi Calm Calm - N/A   Mist
3:55 AM 70.0 °F 69.6 °F 99% 29.79 in 0.8 mi Calm Calm - N/A   Mist
4:18 AM 69.8 °F 69.8 °F 100% 29.78 in 1.0 mi Calm Calm - N/A   Mist
4:24 AM 69.8 °F 69.8 °F 100% 29.78 in 1.0 mi Calm Calm - N/A   Mist
4:28 AM 69.8 °F 69.8 °F 100% 29.78 in 1.2 mi Calm Calm - N/A   Overcast
4:32 AM 69.8 °F 69.8 °F 100% 29.78 in 1.5 mi Calm Calm - N/A   Overcast
4:40 AM 69.8 °F 69.8 °F 100% 29.79 in 2.0 mi Calm Calm - N/A   Overcast
4:44 AM 69.8 °F 69.8 °F 100% 29.79 in 2.0 mi Calm Calm - N/A   Overcast
4:52 AM 69.8 °F 69.8 °F 100% 29.78 in 2.5 mi Calm Calm - N/A   Overcast
4:54 AM 69.8 °F 69.8 °F 100% 29.78 in 3.0 mi Calm Calm - N/A   Overcast
4:55 AM 70.2 °F 70.0 °F 99% 29.78 in 3.0 mi Calm Calm - N/A   Overcast
4:57 AM 69.8 °F 69.8 °F 100% 29.78 in 4.0 mi Calm Calm - N/A   Overcast
4:59 AM 69.8 °F 69.8 °F 100% 29.79 in 6.0 mi Calm Calm - N/A   Overcast
5:01 AM 69.8 °F 69.8 °F 100% 29.78 in 8.0 mi Calm Calm - N/A   Overcast
5:07 AM 69.8 °F 69.8 °F 100% 29.78 in 9.0 mi Calm Calm - N/A   Overcast
5:11 AM 69.8 °F 69.8 °F 100% 29.79 in 8.0 mi Calm Calm - N/A   Overcast
5:22 AM 69.8 °F 69.8 °F 100% 29.79 in 8.0 mi Calm Calm - N/A   Overcast
5:27 AM 69.8 °F 69.8 °F 100% 29.79 in 9.0 mi Calm Calm - N/A   Overcast
5:40 AM 69.8 °F 69.8 °F 100% 29.79 in 9.0 mi Calm Calm - N/A   Overcast
5:50 AM 69.8 °F 69.8 °F 100% 29.79 in 9.0 mi Calm Calm - N/A   Overcast
5:51 AM 69.8 °F 69.8 °F 100% 29.79 in 9.0 mi Calm Calm - N/A   Overcast
5:55 AM 70.3 °F 70.3 °F 100% 29.80 in 9.0 mi Calm Calm - N/A   Overcast
6:00 AM 69.8 °F 69.8 °F 100% 29.80 in 8.0 mi Calm Calm - N/A   Overcast
6:01 AM 69.8 °F 69.8 °F 100% 29.80 in 8.0 mi Calm Calm - N/A   Overcast
6:04 AM 69.8 °F 69.8 °F 100% 29.80 in 5.0 mi Calm Calm - N/A   Overcast
6:06 AM 69.8 °F 69.8 °F 100% 29.80 in 4.0 mi Calm Calm - N/A   Overcast
6:10 AM 69.8 °F 69.8 °F 100% 29.80 in 3.0 mi Calm Calm - N/A   Overcast
6:11 AM 69.8 °F 69.8 °F 100% 29.80 in 2.5 mi Calm Calm - N/A   Overcast
6:12 AM 69.8 °F 69.8 °F 100% 29.80 in 2.5 mi Calm Calm - N/A   Overcast
6:13 AM 69.8 °F 69.8 °F 100% 29.80 in 2.5 mi Calm Calm - N/A   Overcast
6:16 AM 69.8 °F 69.8 °F 100% 29.80 in 2.5 mi SSE 4.6 mph - N/A Rain Light Rain
6:19 AM 69.8 °F 69.8 °F 100% 29.81 in 2.5 mi SSE 3.5 mph - N/A Rain Light Rain
6:20 AM 69.8 °F 69.8 °F 100% 29.81 in 2.5 mi South 3.5 mph - N/A Rain Light Rain
6:21 AM 69.8 °F 69.8 °F 100% 29.81 in 3.0 mi South 3.5 mph - N/A Rain Light Rain
6:26 AM 71.6 °F 71.6 °F 100% 29.81 in 6.0 mi South 3.5 mph - N/A   Overcast
6:29 AM 71.6 °F 71.6 °F 100% 29.81 in 6.0 mi South 3.5 mph - N/A   Overcast
6:41 AM 71.6 °F 71.6 °F 100% 29.81 in 4.0 mi South 3.5 mph - N/A   Overcast
6:48 AM 71.6 °F 71.6 °F 100% 29.81 in 4.0 mi Calm Calm - N/A   Overcast
6:55 AM 71.1 °F 71.1 °F 100% 29.81 in 4.0 mi Calm Calm - 0.00 in   Overcast
6:59 AM 71.6 °F 71.6 °F 100% 29.81 in 4.0 mi Calm Calm - N/A   Overcast
7:10 AM 71.6 °F 71.6 °F 100% 29.82 in 5.0 mi Calm Calm - N/A   Overcast
7:31 AM 71.6 °F 71.6 °F 100% 29.82 in 5.0 mi Calm Calm - N/A   Overcast
7:55 AM 71.2 °F 71.2 °F 100% 29.82 in 6.0 mi SW 4.6 mph - N/A   Overcast
8:18 AM 71.6 °F 71.6 °F 100% 29.82 in 5.0 mi WSW 3.5 mph - N/A Rain Light Rain
8:32 AM 71.6 °F 71.6 °F 100% 29.83 in 10.0 mi Variable 3.5 mph - N/A   Overcast
8:55 AM 70.7 °F 70.7 °F 100% 29.83 in 10.0 mi West 4.6 mph - 0.02 in   Overcast
9:55 AM 69.4 °F 69.4 °F 100% 29.84 in 7.0 mi West 6.9 mph - N/A   Overcast
10:53 AM 69.8 °F 69.8 °F 100% 29.85 in 10.0 mi West 5.8 mph - N/A   Overcast
10:55 AM 69.3 °F 69.3 °F 100% 29.86 in 10.0 mi West 5.8 mph - N/A   Overcast
11:18 AM 69.8 °F 69.8 °F 100% 29.85 in 10.0 mi West 6.9 mph - N/A   Overcast
11:26 AM 69.8 °F 69.8 °F 100% 29.85 in 10.0 mi West 4.6 mph - N/A   Overcast
11:37 AM 69.8 °F 69.8 °F 100% 29.85 in 10.0 mi West 5.8 mph - N/A   Overcast
11:44 AM 69.8 °F 69.8 °F 100% 29.85 in 10.0 mi WSW 6.9 mph - N/A   Overcast
11:55 AM 70.5 °F 70.2 °F 99% 29.85 in 10.0 mi West 8.1 mph - N/A   Overcast
12:06 PM 69.8 °F 69.8 °F 100% 29.84 in 10.0 mi WSW 5.8 mph - N/A   Overcast
12:40 PM 73.4 °F 68.0 °F 83% 29.83 in 10.0 mi SW 6.9 mph - N/A   Overcast
12:55 PM 74.1 °F 67.5 °F 80% 29.83 in 10.0 mi WSW 5.8 mph - N/A   Overcast
1:25 PM 75.2 °F 68.0 °F 78% 29.82 in 10.0 mi SW 3.5 mph - N/A   Overcast
1:55 PM 76.1 °F 67.3 °F 74% 29.81 in 10.0 mi West 5.8 mph - N/A   Overcast
2:55 PM 77.0 °F 66.9 °F 71% 29.79 in 10.0 mi WSW 6.9 mph - N/A   Overcast
3:28 PM 77.0 °F 66.2 °F 69% 29.78 in 10.0 mi WSW 5.8 mph - N/A   Scattered Clouds
3:54 PM 78.8 °F 66.2 °F 65% 29.79 in 10.0 mi West 8.1 mph - N/A   Scattered Clouds
3:55 PM 78.1 °F 66.4 °F 67% 29.79 in 10.0 mi West 6.9 mph - N/A   Scattered Clouds
4:55 PM 77.7 °F 66.2 °F 68% 29.79 in 10.0 mi West 8.1 mph - N/A   Scattered Clouds
5:55 PM 75.4 °F 66.6 °F 74% 29.79 in 10.0 mi WNW 9.2 mph - N/A   Overcast
6:55 PM 73.8 °F 65.5 °F 75% 29.79 in 10.0 mi West 4.6 mph - N/A   Overcast
7:55 PM 71.8 °F 66.4 °F 83% 29.80 in 10.0 mi WNW 4.6 mph - N/A   Overcast
8:55 PM 71.2 °F 65.1 °F 81% 29.81 in 10.0 mi West 4.6 mph - N/A   Mostly Cloudy
9:55 PM 69.4 °F 66.4 °F 90% 29.82 in 10.0 mi Calm Calm - N/A   Overcast
10:49 PM 68.0 °F 66.2 °F 94% 29.82 in 10.0 mi Calm Calm - N/A   Overcast
10:55 PM 68.7 °F 67.1 °F 95% 29.83 in 10.0 mi Calm Calm - N/A   Overcast
10:59 PM 68.0 °F 68.0 °F 100% 29.83 in 10.0 mi Calm Calm - N/A   Overcast
11:04 PM 68.0 °F 68.0 °F 100% 29.82 in 10.0 mi South 1.2 mph - N/A   Mostly Cloudy
11:55 PM 69.1 °F 66.0 °F 90% 29.83 in 10.0 mi Calm Calm - N/A   Overcast